sensor_id;sensor_type;location;lat;lon;timestamp;pressure;altitude;pressure_sealevel;temperature;humidity
29383;BME280;16365;51.598;7.668;2023-03-11T00:00:56;99766.31;;;8.50;51.69
29383;BME280;16365;51.598;7.668;2023-03-11T00:03:22;99766.31;;;8.50;51.98
29383;BME280;16365;51.598;7.668;2023-03-11T00:05:50;99779.00;;;8.51;51.61
29383;BME280;16365;51.598;7.668;2023-03-11T00:08:18;99779.00;;;8.51;51.32
29383;BME280;16365;51.598;7.668;2023-03-11T00:10:45;99782.56;;;8.52;51.18
29383;BME280;16365;51.598;7.668;2023-03-11T00:13:13;99788.09;;;8.52;51.53
29383;BME280;16365;51.598;7.668;2023-03-11T00:15:40;99794.41;;;8.52;52.04
29383;BME280;16365;51.598;7.668;2023-03-11T00:18:06;99805.47;;;8.52;51.90
29383;BME280;16365;51.598;7.668;2023-03-11T00:20:37;99807.88;;;8.54;52.02
29383;BME280;16365;51.598;7.668;2023-03-11T00:23:05;99818.59;;;8.55;52.15
29383;BME280;16365;51.598;7.668;2023-03-11T00:25:32;99819.88;;;8.58;52.22
29383;BME280;16365;51.598;7.668;2023-03-11T00:27:58;99830.59;;;8.59;52.19
29383;BME280;16365;51.598;7.668;2023-03-11T00:30:25;99831.41;;;8.60;51.47
29383;BME280;16365;51.598;7.668;2023-03-11T00:32:54;99831.09;;;8.61;51.77
29383;BME280;16365;51.598;7.668;2023-03-11T00:35:22;99833.03;;;8.61;51.29
29383;BME280;16365;51.598;7.668;2023-03-11T00:37:52;99833.03;;;8.61;51.35
29383;BME280;16365;51.598;7.668;2023-03-11T00:40:19;99832.19;;;8.60;51.99
29383;BME280;16365;51.598;7.668;2023-03-11T00:42:45;99837.72;;;8.60;51.62
29383;BME280;16365;51.598;7.668;2023-03-11T00:45:12;99835.31;;;8.59;51.65
29383;BME280;16365;51.598;7.668;2023-03-11T00:47:39;99847.84;;;8.56;52.01
29383;BME280;16365;51.598;7.668;2023-03-11T00:50:06;99858.91;;;8.56;51.96
29383;BME280;16365;51.598;7.668;2023-03-11T00:52:32;99859.22;;;8.55;51.95
29383;BME280;16365;51.598;7.668;2023-03-11T00:54:58;99866.38;;;8.56;51.37
29383;BME280;16365;51.598;7.668;2023-03-11T00:57:25;99866.84;;;8.58;52.24
29383;BME280;16365;51.598;7.668;2023-03-11T00:59:54;99871.22;;;8.59;51.50
29383;BME280;16365;51.598;7.668;2023-03-11T01:02:21;99878.06;;;8.61;52.08
29383;BME280;16365;51.598;7.668;2023-03-11T01:04:47;99876.91;;;8.62;51.85
29383;BME280;16365;51.598;7.668;2023-03-11T01:07:13;99875.75;;;8.63;52.28
29383;BME280;16365;51.598;7.668;2023-03-11T01:09:40;99877.38;;;8.64;52.26
29383;BME280;16365;51.598;7.668;2023-03-11T01:12:06;99882.09;;;8.64;51.44
29383;BME280;16365;51.598;7.668;2023-03-11T01:14:32;99888.75;;;8.63;52.19
29383;BME280;16365;51.598;7.668;2023-03-11T01:16:58;99888.75;;;8.63;52.01
29383;BME280;16365;51.598;7.668;2023-03-11T01:19:25;99893.47;;;8.62;51.88
29383;BME280;16365;51.598;7.668;2023-03-11T01:21:51;99889.91;;;8.62;52.09
29383;BME280;16365;51.598;7.668;2023-03-11T01:24:17;99901.28;;;8.60;52.07
29383;BME280;16365;51.598;7.668;2023-03-11T01:26:44;99900.81;;;8.58;52.07
29383;BME280;16365;51.598;7.668;2023-03-11T01:29:10;99911.41;;;8.56;51.89
29383;BME280;16365;51.598;7.668;2023-03-11T01:31:37;99908.94;;;8.55;51.99
29383;BME280;16365;51.598;7.668;2023-03-11T01:34:03;99898.59;;;8.52;52.08
29383;BME280;16365;51.598;7.668;2023-03-11T01:36:29;99915.47;;;8.50;52.00
29383;BME280;16365;51.598;7.668;2023-03-11T01:38:56;99908.34;;;8.49;52.03
29383;BME280;16365;51.598;7.668;2023-03-11T01:41:22;99910.28;;;8.48;51.91
29383;BME280;16365;51.598;7.668;2023-03-11T01:43:50;99908.34;;;8.49;51.63
29383;BME280;16365;51.598;7.668;2023-03-11T01:46:20;99913.88;;;8.49;51.61
29383;BME280;16365;51.598;7.668;2023-03-11T01:48:51;99907.53;;;8.48;52.30
29383;BME280;16365;51.598;7.668;2023-03-11T01:51:19;99915.81;;;8.48;51.56
29383;BME280;16365;51.598;7.668;2023-03-11T01:53:48;99913.06;;;8.48;51.39
29383;BME280;16365;51.598;7.668;2023-03-11T01:56:14;99913.88;;;8.49;51.83
29383;BME280;16365;51.598;7.668;2023-03-11T01:58:41;99919.38;;;8.49;51.47
29383;BME280;16365;51.598;7.668;2023-03-11T02:01:10;99918.59;;;8.48;52.13
29383;BME280;16365;51.598;7.668;2023-03-11T02:03:37;99918.13;;;8.46;51.89
29383;BME280;16365;51.598;7.668;2023-03-11T02:06:06;99920.88;;;8.46;52.12
29383;BME280;16365;51.598;7.668;2023-03-11T02:08:33;99924.75;;;8.45;51.45
29383;BME280;16365;51.598;7.668;2023-03-11T02:10:59;99924.31;;;8.43;51.80
29383;BME280;16365;51.598;7.668;2023-03-11T02:13:27;99914.72;;;8.41;51.66
29383;BME280;16365;51.598;7.668;2023-03-11T02:15:54;99919.31;;;8.37;51.92
29383;BME280;16365;51.598;7.668;2023-03-11T02:18:21;99913.78;;;8.37;51.93
29383;BME280;16365;51.598;7.668;2023-03-11T02:20:56;99917.63;;;8.36;51.28
29383;BME280;16365;51.598;7.668;2023-03-11T02:23:27;99931.78;;;8.34;51.95
29383;BME280;16365;51.598;7.668;2023-03-11T02:29:00;99940.06;;;8.34;52.27
29383;BME280;16365;51.598;7.668;2023-03-11T02:31:28;99924.66;;;8.33;52.10
29383;BME280;16365;51.598;7.668;2023-03-11T02:33:55;99933.75;;;8.34;51.72
29383;BME280;16365;51.598;7.668;2023-03-11T02:36:33;99935.69;;;8.33;52.05
29383;BME280;16365;51.598;7.668;2023-03-11T02:38:59;99936.03;;;8.32;52.21
29383;BME280;16365;51.598;7.668;2023-03-11T02:41:26;99935.53;;;8.30;51.55
29383;BME280;16365;51.598;7.668;2023-03-11T02:43:53;99931.97;;;8.29;52.19
29383;BME280;16365;51.598;7.668;2023-03-11T02:46:19;99935.06;;;8.28;52.14
29383;BME280;16365;51.598;7.668;2023-03-11T02:48:46;99947.72;;;8.29;52.37
29383;BME280;16365;51.598;7.668;2023-03-11T02:51:12;99948.06;;;8.27;51.69
29383;BME280;16365;51.598;7.668;2023-03-11T02:53:40;99954.41;;;8.28;52.16
29383;BME280;16365;51.598;7.668;2023-03-11T02:56:10;99959.94;;;8.28;52.46
29383;BME280;16365;51.598;7.668;2023-03-11T02:58:36;99955.22;;;8.28;51.78
29383;BME280;16365;51.598;7.668;2023-03-11T03:01:02;99956.03;;;8.29;52.25
29383;BME280;16365;51.598;7.668;2023-03-11T03:03:29;99958.78;;;8.29;52.13
29383;BME280;16365;51.598;7.668;2023-03-11T03:05:55;99961.53;;;8.29;52.39
29383;BME280;16365;51.598;7.668;2023-03-11T03:08:21;99962.34;;;8.29;52.27
29383;BME280;16365;51.598;7.668;2023-03-11T03:10:48;99967.88;;;8.29;52.31
29383;BME280;16365;51.598;7.668;2023-03-11T03:13:14;99975.34;;;8.29;52.30
29383;BME280;16365;51.598;7.668;2023-03-11T03:15:40;99978.09;;;8.29;51.55
29383;BME280;16365;51.598;7.668;2023-03-11T03:18:07;99985.91;;;8.27;52.23
29383;BME280;16365;51.598;7.668;2023-03-11T03:20:33;99985.44;;;8.24;51.31
29383;BME280;16365;51.598;7.668;2023-03-11T03:22:59;99986.91;;;8.22;51.63
29383;BME280;16365;51.598;7.668;2023-03-11T03:25:26;99988.38;;;8.19;51.58
29383;BME280;16365;51.598;7.668;2023-03-11T03:27:52;99990.66;;;8.17;51.56
29383;BME280;16365;51.598;7.668;2023-03-11T03:30:18;99994.53;;;8.16;51.50
29383;BME280;16365;51.598;7.668;2023-03-11T03:32:45;99997.97;;;8.13;51.72
29383;BME280;16365;51.598;7.668;2023-03-11T03:35:11;99992.75;;;8.12;52.09
29383;BME280;16365;51.598;7.668;2023-03-11T03:37:38;100008.88;;;8.10;51.43
29383;BME280;16365;51.598;7.668;2023-03-11T03:40:04;100008.06;;;8.09;51.92
29383;BME280;16365;51.598;7.668;2023-03-11T03:42:35;100008.06;;;8.09;52.13
29383;BME280;16365;51.598;7.668;2023-03-11T03:45:03;99998.97;;;8.09;52.22
29383;BME280;16365;51.598;7.668;2023-03-11T03:47:30;100006.09;;;8.10;51.63
29383;BME280;16365;51.598;7.668;2023-03-11T03:49:56;100011.63;;;8.10;51.44
29383;BME280;16365;51.598;7.668;2023-03-11T03:52:23;100008.06;;;8.09;51.49
29383;BME280;16365;51.598;7.668;2023-03-11T03:54:49;100015.19;;;8.10;51.93
29383;BME280;16365;51.598;7.668;2023-03-11T03:57:16;100015.19;;;8.10;51.64
29383;BME280;16365;51.598;7.668;2023-03-11T03:59:42;100015.19;;;8.10;51.83
29383;BME280;16365;51.598;7.668;2023-03-11T04:02:09;100017.94;;;8.10;52.16
29383;BME280;16365;51.598;7.668;2023-03-11T04:04:35;100018.75;;;8.11;51.61
29383;BME280;16365;51.598;7.668;2023-03-11T04:07:03;100027.03;;;8.11;51.80
29383;BME280;16365;51.598;7.668;2023-03-11T04:09:29;100021.53;;;8.11;52.30
29383;BME280;16365;51.598;7.668;2023-03-11T04:11:55;100030.59;;;8.11;51.76
29383;BME280;16365;51.598;7.668;2023-03-11T04:14:22;100033.06;;;8.13;52.32
29383;BME280;16365;51.598;7.668;2023-03-11T04:16:48;100033.53;;;8.15;51.73
29383;BME280;16365;51.598;7.668;2023-03-11T04:19:15;100041.47;;;8.16;52.01
29383;BME280;16365;51.598;7.668;2023-03-11T04:21:41;100042.78;;;8.19;52.44
29383;BME280;16365;51.598;7.668;2023-03-11T04:24:07;100041.63;;;8.20;52.26
29383;BME280;16365;51.598;7.668;2023-03-11T04:26:34;100046.03;;;8.21;52.31
29383;BME280;16365;51.598;7.668;2023-03-11T04:29:00;100045.72;;;8.22;52.45
29383;BME280;16365;51.598;7.668;2023-03-11T04:31:26;100054.47;;;8.24;52.37
29383;BME280;16365;51.598;7.668;2023-03-11T04:33:53;100053.00;;;8.27;51.73
29383;BME280;16365;51.598;7.668;2023-03-11T04:36:19;100057.38;;;8.28;51.73
29383;BME280;16365;51.598;7.668;2023-03-11T04:38:46;100062.91;;;8.28;52.00
29383;BME280;16365;51.598;7.668;2023-03-11T04:41:12;100060.97;;;8.29;51.96
29383;BME280;16365;51.598;7.668;2023-03-11T04:43:38;100059.00;;;8.29;52.44
29383;BME280;16365;51.598;7.668;2023-03-11T04:46:05;100072.81;;;8.29;51.63
29383;BME280;16365;51.598;7.668;2023-03-11T04:48:32;100082.25;;;8.28;52.13
29383;BME280;16365;51.598;7.668;2023-03-11T04:50:58;100082.56;;;8.27;52.23
29383;BME280;16365;51.598;7.668;2023-03-11T04:53:24;100094.75;;;8.25;52.15
29383;BME280;16365;51.598;7.668;2023-03-11T04:55:51;100087.94;;;8.23;51.66
29383;BME280;16365;51.598;7.668;2023-03-11T04:58:19;100090.38;;;8.24;51.55
29383;BME280;16365;51.598;7.668;2023-03-11T05:00:45;100093.94;;;8.25;51.83
29383;BME280;16365;51.598;7.668;2023-03-11T05:03:11;100097.84;;;8.24;51.63
29383;BME280;16365;51.598;7.668;2023-03-11T05:05:38;100102.22;;;8.25;51.76
29383;BME280;16365;51.598;7.668;2023-03-11T05:08:04;100100.25;;;8.25;51.80
29383;BME280;16365;51.598;7.668;2023-03-11T05:10:31;100091.16;;;8.25;51.94
29383;BME280;16365;51.598;7.668;2023-03-11T05:12:58;100093.94;;;8.25;51.74
29383;BME280;16365;51.598;7.668;2023-03-11T05:15:27;100105.47;;;8.27;51.52
29383;BME280;16365;51.598;7.668;2023-03-11T05:17:56;100103.03;;;8.25;51.81
29383;BME280;16365;51.598;7.668;2023-03-11T05:20:26;100106.28;;;8.28;51.74
29383;BME280;16365;51.598;7.668;2023-03-11T05:22:53;100112.28;;;8.30;52.16
29383;BME280;16365;51.598;7.668;2023-03-11T05:25:22;100113.44;;;8.29;52.23
29383;BME280;16365;51.598;7.668;2023-03-11T05:27:51;100113.91;;;8.31;52.09
29383;BME280;16365;51.598;7.668;2023-03-11T05:30:18;100121.06;;;8.32;52.08
29383;BME280;16365;51.598;7.668;2023-03-11T05:32:46;100117.16;;;8.33;51.92
29383;BME280;16365;51.598;7.668;2023-03-11T05:35:13;100108.88;;;8.33;51.52
29383;BME280;16365;51.598;7.668;2023-03-11T05:37:41;100121.53;;;8.34;51.48
29383;BME280;16365;51.598;7.668;2023-03-11T05:40:11;100130.16;;;8.32;51.98
29383;BME280;16365;51.598;7.668;2023-03-11T05:42:47;100138.44;;;8.32;51.40
29383;BME280;16365;51.598;7.668;2023-03-11T05:45:16;100135.69;;;8.32;52.03
29383;BME280;16365;51.598;7.668;2023-03-11T05:47:42;100139.56;;;8.31;51.77
29383;BME280;16365;51.598;7.668;2023-03-11T05:50:09;100133.91;;;8.28;52.10
29383;BME280;16365;51.598;7.668;2023-03-11T05:52:37;100136.66;;;8.28;51.69
29383;BME280;16365;51.598;7.668;2023-03-11T05:55:03;100144.44;;;8.25;51.71
29383;BME280;16365;51.598;7.668;2023-03-11T05:57:33;100142.03;;;8.24;51.11
29383;BME280;16365;51.598;7.668;2023-03-11T06:00:05;100143.16;;;8.23;51.60
29383;BME280;16365;51.598;7.668;2023-03-11T06:02:40;100147.88;;;8.22;51.43
29383;BME280;16365;51.598;7.668;2023-03-11T06:05:07;100150.94;;;8.21;51.67
29383;BME280;16365;51.598;7.668;2023-03-11T06:07:38;100160.03;;;8.21;51.82
29383;BME280;16365;51.598;7.668;2023-03-11T06:10:04;100160.88;;;8.22;51.42
29383;BME280;16365;51.598;7.668;2023-03-11T06:12:33;100157.63;;;8.20;51.95
29383;BME280;16365;51.598;7.668;2023-03-11T06:15:00;100158.41;;;8.20;51.32
29383;BME280;16365;51.598;7.668;2023-03-11T06:17:27;100158.13;;;8.22;51.74
29383;BME280;16365;51.598;7.668;2023-03-11T06:19:55;100154.22;;;8.23;51.62
29383;BME280;16365;51.598;7.668;2023-03-11T06:22:21;100158.25;;;8.25;52.11
29383;BME280;16365;51.598;7.668;2023-03-11T06:24:48;100157.44;;;8.25;51.89
29383;BME280;16365;51.598;7.668;2023-03-11T06:27:14;100159.88;;;8.27;51.94
29383;BME280;16365;51.598;7.668;2023-03-11T06:29:42;100167.03;;;8.28;51.54
29383;BME280;16365;51.598;7.668;2023-03-11T06:32:08;100168.66;;;8.29;52.02
29383;BME280;16365;51.598;7.668;2023-03-11T06:34:36;100173.38;;;8.28;51.45
29383;BME280;16365;51.598;7.668;2023-03-11T06:37:02;100172.22;;;8.29;51.96
29383;BME280;16365;51.598;7.668;2023-03-11T06:39:29;100173.03;;;8.30;51.88
29383;BME280;16365;51.598;7.668;2023-03-11T06:41:55;100174.19;;;8.29;51.63
29383;BME280;16365;51.598;7.668;2023-03-11T06:44:21;100184.91;;;8.30;51.77
29383;BME280;16365;51.598;7.668;2023-03-11T06:46:48;100196.44;;;8.32;51.95
29383;BME280;16365;51.598;7.668;2023-03-11T06:49:15;100190.59;;;8.34;51.19
29383;BME280;16365;51.598;7.668;2023-03-11T06:51:42;100193.81;;;8.36;51.24
29383;BME280;16365;51.598;7.668;2023-03-11T06:54:08;100210.13;;;8.37;51.89
29383;BME280;16365;51.598;7.668;2023-03-11T06:56:37;100221.19;;;8.37;51.19
29383;BME280;16365;51.598;7.668;2023-03-11T06:59:03;100215.31;;;8.39;51.32
29383;BME280;16365;51.598;7.668;2023-03-11T07:01:31;100214.97;;;8.40;51.65
29383;BME280;16365;51.598;7.668;2023-03-11T07:03:58;100225.72;;;8.42;51.82
29383;BME280;16365;51.598;7.668;2023-03-11T07:06:24;100232.06;;;8.42;51.78
29383;BME280;16365;51.598;7.668;2023-03-11T07:08:51;100238.38;;;8.43;51.79
29383;BME280;16365;51.598;7.668;2023-03-11T07:11:22;100249.44;;;8.43;51.18
29383;BME280;16365;51.598;7.668;2023-03-11T07:13:49;100247.81;;;8.42;51.46
29383;BME280;16365;51.598;7.668;2023-03-11T07:16:17;100252.53;;;8.41;51.63
29383;BME280;16365;51.598;7.668;2023-03-11T07:18:46;100247.31;;;8.40;51.62
29383;BME280;16365;51.598;7.668;2023-03-11T07:21:13;100253.66;;;8.40;51.71
29383;BME280;16365;51.598;7.668;2023-03-11T07:23:40;100258.88;;;8.42;51.02
29383;BME280;16365;51.598;7.668;2023-03-11T07:26:07;100269.91;;;8.42;51.45
29383;BME280;16365;51.598;7.668;2023-03-11T07:28:35;100271.22;;;8.44;51.70
29383;BME280;16365;51.598;7.668;2023-03-11T07:31:08;100282.75;;;8.46;51.34
29383;BME280;16365;51.598;7.668;2023-03-11T07:33:34;100285.19;;;8.48;51.72
29383;BME280;16365;51.598;7.668;2023-03-11T07:36:03;100280.94;;;8.50;51.25
29383;BME280;16365;51.598;7.668;2023-03-11T07:38:31;100290.38;;;8.49;50.85
29383;BME280;16365;51.598;7.668;2023-03-11T07:40:58;100303.91;;;8.51;50.77
29383;BME280;16365;51.598;7.668;2023-03-11T07:43:25;100305.50;;;8.52;51.31
29383;BME280;16365;51.598;7.668;2023-03-11T07:45:51;100309.09;;;8.53;51.41
29383;BME280;16365;51.598;7.668;2023-03-11T07:48:22;100307.59;;;8.55;51.72
29383;BME280;16365;51.598;7.668;2023-03-11T07:50:48;100304.22;;;8.58;51.54
29383;BME280;16365;51.598;7.668;2023-03-11T07:53:15;100306.81;;;8.63;51.08
29383;BME280;16365;51.598;7.668;2023-03-11T07:55:41;100307.44;;;8.69;51.20
29383;BME280;16365;51.598;7.668;2023-03-11T07:58:07;100319.16;;;8.74;51.12
29383;BME280;16365;51.598;7.668;2023-03-11T08:00:34;100319.00;;;8.80;51.31
29383;BME280;16365;51.598;7.668;2023-03-11T08:03:00;100329.06;;;8.84;51.53
29383;BME280;16365;51.598;7.668;2023-03-11T08:05:31;100329.75;;;8.90;51.32
29383;BME280;16365;51.598;7.668;2023-03-11T08:08:07;100324.84;;;8.95;51.68
29383;BME280;16365;51.598;7.668;2023-03-11T08:10:36;100334.59;;;9.01;51.83
29383;BME280;16365;51.598;7.668;2023-03-11T08:13:03;100332.47;;;9.07;51.19
29383;BME280;16365;51.598;7.668;2023-03-11T08:15:32;100332.81;;;9.14;51.94
29383;BME280;16365;51.598;7.668;2023-03-11T08:18:09;100333.09;;;9.21;52.02
29383;BME280;16365;51.598;7.668;2023-03-11T08:20:38;100331.47;;;9.29;51.93
29383;BME280;16365;51.598;7.668;2023-03-11T08:23:06;100334.19;;;9.38;51.95
29383;BME280;16365;51.598;7.668;2023-03-11T08:25:32;100342.81;;;9.45;51.64
29383;BME280;16365;51.598;7.668;2023-03-11T08:28:00;100335.50;;;9.49;51.54
29383;BME280;16365;51.598;7.668;2023-03-11T08:30:27;100341.66;;;9.55;51.56
29383;BME280;16365;51.598;7.668;2023-03-11T08:32:53;100354.97;;;9.61;51.00
29383;BME280;16365;51.598;7.668;2023-03-11T08:35:20;100355.59;;;9.67;51.16
29383;BME280;16365;51.598;7.668;2023-03-11T08:37:48;100363.75;;;9.72;51.54
29383;BME280;16365;51.598;7.668;2023-03-11T08:40:14;100367.16;;;9.77;51.13
29383;BME280;16365;51.598;7.668;2023-03-11T08:42:43;100363.72;;;9.81;50.83
29383;BME280;16365;51.598;7.668;2023-03-11T08:45:10;100358.31;;;9.84;50.91
29383;BME280;16365;51.598;7.668;2023-03-11T08:47:37;100365.16;;;9.87;51.15
29383;BME280;16365;51.598;7.668;2023-03-11T08:50:04;100369.56;;;9.88;51.00
29383;BME280;16365;51.598;7.668;2023-03-11T08:52:32;100372.78;;;9.90;50.71
29383;BME280;16365;51.598;7.668;2023-03-11T08:54:58;100370.19;;;9.93;51.08
29383;BME280;16365;51.598;7.668;2023-03-11T08:57:27;100372.94;;;9.93;50.91
29383;BME280;16365;51.598;7.668;2023-03-11T08:59:55;100368.69;;;9.96;50.52
29383;BME280;16365;51.598;7.668;2023-03-11T09:02:24;100370.00;;;9.98;51.25
29383;BME280;16365;51.598;7.668;2023-03-11T09:04:50;100361.34;;;10.00;50.64
29383;BME280;16365;51.598;7.668;2023-03-11T09:07:19;100365.41;;;10.02;49.79
29383;BME280;16365;51.598;7.668;2023-03-11T09:09:45;100363.13;;;10.04;49.79
29383;BME280;16365;51.598;7.668;2023-03-11T09:12:12;100366.38;;;10.07;50.82
29383;BME280;16365;51.598;7.668;2023-03-11T09:14:45;100372.88;;;10.11;50.61
29383;BME280;16365;51.598;7.668;2023-03-11T09:17:11;100372.53;;;10.12;50.58
29383;BME280;16365;51.598;7.668;2023-03-11T09:19:39;100369.09;;;10.15;50.38
29383;BME280;16365;51.598;7.668;2023-03-11T09:22:06;100371.22;;;10.18;50.51
29383;BME280;16365;51.598;7.668;2023-03-11T09:24:33;100370.56;;;10.21;50.44
29383;BME280;16365;51.598;7.668;2023-03-11T09:27:00;100368.78;;;10.25;50.21
29383;BME280;16365;51.598;7.668;2023-03-11T09:29:28;100364.50;;;10.28;50.34
29383;BME280;16365;51.598;7.668;2023-03-11T09:31:54;100366.28;;;10.33;50.79
29383;BME280;16365;51.598;7.668;2023-03-11T09:34:23;100368.03;;;10.37;50.48
29383;BME280;16365;51.598;7.668;2023-03-11T09:36:49;100368.19;;;10.41;50.58
29383;BME280;16365;51.598;7.668;2023-03-11T09:39:15;100371.13;;;10.44;50.62
29383;BME280;16365;51.598;7.668;2023-03-11T09:41:52;100379.88;;;10.46;50.33
29383;BME280;16365;51.598;7.668;2023-03-11T09:52:14;100380.66;;;10.55;49.75
29383;BME280;16365;51.598;7.668;2023-03-11T09:54:42;100387.47;;;10.58;50.24
29383;BME280;16365;51.598;7.668;2023-03-11T09:57:15;100396.75;;;10.62;50.67
29383;BME280;16365;51.598;7.668;2023-03-11T09:59:42;100400.81;;;10.65;50.42
29383;BME280;16365;51.598;7.668;2023-03-11T10:02:11;100401.78;;;10.69;50.67
29383;BME280;16365;51.598;7.668;2023-03-11T10:04:50;100400.63;;;10.70;50.28
29383;BME280;16365;51.598;7.668;2023-03-11T10:07:22;100401.88;;;10.72;50.52
29383;BME280;16365;51.598;7.668;2023-03-11T10:09:52;100414.63;;;10.73;50.47
29383;BME280;16365;51.598;7.668;2023-03-11T10:20:08;100411.31;;;10.80;50.41
29383;BME280;16365;51.598;7.668;2023-03-11T10:25:15;100411.09;;;10.85;49.64
29383;BME280;16365;51.598;7.668;2023-03-11T10:27:48;100416.00;;;10.88;50.40
29383;BME280;16365;51.598;7.668;2023-03-11T10:33:03;100417.41;;;10.94;50.53
29383;BME280;16365;51.598;7.668;2023-03-11T10:38:04;100423.09;;;10.98;50.18
29383;BME280;16365;51.598;7.668;2023-03-11T10:40:36;100424.72;;;10.99;50.18
29383;BME280;16365;51.598;7.668;2023-03-11T10:43:05;100418.00;;;11.00;49.75
29383;BME280;16365;51.598;7.668;2023-03-11T10:45:36;100420.44;;;11.01;49.72
29383;BME280;16365;51.598;7.668;2023-03-11T10:48:07;100424.88;;;11.02;49.74
29383;BME280;16365;51.598;7.668;2023-03-11T10:50:34;100418.63;;;11.05;49.32
29383;BME280;16365;51.598;7.668;2023-03-11T10:53:14;100422.34;;;11.10;49.17
29383;BME280;16365;51.598;7.668;2023-03-11T10:55:50;100424.09;;;11.14;49.18
29383;BME280;16365;51.598;7.668;2023-03-11T10:58:18;100432.69;;;11.21;49.45
29383;BME280;16365;51.598;7.668;2023-03-11T11:00:45;100423.03;;;11.27;49.22
29383;BME280;16365;51.598;7.668;2023-03-11T11:03:18;100429.16;;;11.33;49.79
29383;BME280;16365;51.598;7.668;2023-03-11T11:05:46;100429.78;;;11.39;48.69
29383;BME280;16365;51.598;7.668;2023-03-11T11:08:21;100433.16;;;11.44;48.95
29383;BME280;16365;51.598;7.668;2023-03-11T11:10:49;100428.53;;;11.48;48.76
29383;BME280;16365;51.598;7.668;2023-03-11T11:13:17;100427.16;;;11.54;49.60
29383;BME280;16365;51.598;7.668;2023-03-11T11:16:00;100438.88;;;11.60;49.64
29383;BME280;16365;51.598;7.668;2023-03-11T11:18:28;100434.75;;;11.66;50.14
29383;BME280;16365;51.598;7.668;2023-03-11T11:26:23;100439.06;;;11.76;50.33
29383;BME280;16365;51.598;7.668;2023-03-11T11:29:04;100436.94;;;11.73;49.97
29383;BME280;16365;51.598;7.668;2023-03-11T11:31:34;100431.63;;;11.68;49.91
29383;BME280;16365;51.598;7.668;2023-03-11T11:34:01;100426.63;;;11.61;49.35
29383;BME280;16365;51.598;7.668;2023-03-11T11:36:28;100429.94;;;11.54;49.63
29383;BME280;16365;51.598;7.668;2023-03-11T11:38:55;100424.97;;;11.48;49.29
29383;BME280;16365;51.598;7.668;2023-03-11T11:41:25;100428.75;;;11.43;48.95
29383;BME280;16365;51.598;7.668;2023-03-11T11:43:56;100423.41;;;11.38;47.36
29383;BME280;16365;51.598;7.668;2023-03-11T11:46:47;100417.38;;;11.36;47.34
29383;BME280;16365;51.598;7.668;2023-03-11T11:49:27;100407.44;;;11.35;46.69
29383;BME280;16365;51.598;7.668;2023-03-11T11:54:34;100415.69;;;11.44;47.55
29383;BME280;16365;51.598;7.668;2023-03-11T11:57:10;100407.94;;;11.49;47.04
29383;BME280;16365;51.598;7.668;2023-03-11T11:59:36;100408.69;;;11.58;48.86
29383;BME280;16365;51.598;7.668;2023-03-11T12:07:03;100414.53;;;11.78;49.05
29383;BME280;16365;51.598;7.668;2023-03-11T12:09:35;100415.50;;;11.82;49.17
29383;BME280;16365;51.598;7.668;2023-03-11T12:12:22;100407.59;;;11.84;49.08
29383;BME280;16365;51.598;7.668;2023-03-11T12:15:00;100405.66;;;11.85;49.10
29383;BME280;16365;51.598;7.668;2023-03-11T12:17:29;100412.34;;;11.83;49.39
29383;BME280;16365;51.598;7.668;2023-03-11T12:19:57;100413.53;;;11.82;47.78
29383;BME280;16365;51.598;7.668;2023-03-11T12:27:56;100400.94;;;11.85;48.28
29383;BME280;16365;51.598;7.668;2023-03-11T12:30:25;100404.59;;;11.89;47.89
29383;BME280;16365;51.598;7.668;2023-03-11T12:33:02;100403.56;;;11.94;48.02
29383;BME280;16365;51.598;7.668;2023-03-11T12:35:30;100418.91;;;12.00;48.37
29383;BME280;16365;51.598;7.668;2023-03-11T12:38:00;100415.88;;;12.05;48.35
29383;BME280;16365;51.598;7.668;2023-03-11T12:45:56;100423.31;;;12.25;47.70
29383;BME280;16365;51.598;7.668;2023-03-11T12:48:31;100428.66;;;12.30;47.43
29383;BME280;16365;51.598;7.668;2023-03-11T12:50:58;100430.38;;;12.35;48.37
29383;BME280;16365;51.598;7.668;2023-03-11T12:53:44;100430.16;;;12.40;48.07
29383;BME280;16365;51.598;7.668;2023-03-11T12:56:33;100433.06;;;12.44;47.80
29383;BME280;16365;51.598;7.668;2023-03-11T12:59:11;100434.44;;;12.50;47.90
29383;BME280;16365;51.598;7.668;2023-03-11T13:04:29;100436.75;;;12.60;47.93
29383;BME280;16365;51.598;7.668;2023-03-11T13:09:42;100425.88;;;12.67;46.11
29383;BME280;16365;51.598;7.668;2023-03-11T13:15:30;100434.44;;;12.74;47.81
29383;BME280;16365;51.598;7.668;2023-03-11T13:25:42;100435.56;;;12.85;48.30
29383;BME280;16365;51.598;7.668;2023-03-11T13:36:07;100431.88;;;12.81;47.65
29383;BME280;16365;51.598;7.668;2023-03-11T13:38:38;100431.53;;;12.83;47.54
29383;BME280;16365;51.598;7.668;2023-03-11T13:41:12;100427.94;;;12.82;48.23
29383;BME280;16365;51.598;7.668;2023-03-11T13:43:42;100439.06;;;12.82;48.06
29383;BME280;16365;51.598;7.668;2023-03-11T13:46:26;100433.50;;;12.82;47.32
29383;BME280;16365;51.598;7.668;2023-03-11T13:48:59;100428.38;;;12.84;47.99
29383;BME280;16365;51.598;7.668;2023-03-11T13:56:27;100428.63;;;12.92;46.64
29383;BME280;16365;51.598;7.668;2023-03-11T13:58:54;100435.91;;;12.96;47.33
29383;BME280;16365;51.598;7.668;2023-03-11T14:01:39;100437.16;;;12.99;47.34
29383;BME280;16365;51.598;7.668;2023-03-11T14:04:12;100434.03;;;13.00;47.12
29383;BME280;16365;51.598;7.668;2023-03-11T14:06:41;100438.44;;;13.01;46.74
29383;BME280;16365;51.598;7.668;2023-03-11T14:09:14;100442.03;;;13.02;46.33
29383;BME280;16365;51.598;7.668;2023-03-11T14:11:43;100445.28;;;13.04;46.77
29383;BME280;16365;51.598;7.668;2023-03-11T14:14:33;100443.78;;;13.06;46.50
29383;BME280;16365;51.598;7.668;2023-03-11T14:17:03;100447.81;;;13.09;46.30
29383;BME280;16365;51.598;7.668;2023-03-11T14:19:31;100445.16;;;13.12;47.25
29383;BME280;16365;51.598;7.668;2023-03-11T14:21:58;100438.06;;;13.15;47.62
29383;BME280;16365;51.598;7.668;2023-03-11T14:24:25;100437.00;;;13.20;46.96
29383;BME280;16365;51.598;7.668;2023-03-11T14:26:52;100435.53;;;13.22;47.16